Round Top, Texas
Current Conditions -  °F | °C
As of 9:10 AM on Thursday 18 Dec 2014 (Local Time) from K3T5 Reporting Station
Haze Haze  
Wind Chill: 54°   Ceiling: 400
Heat Index: 54°   Visibility: 3mi
Dew Point: 53°   Wind: 3mph
Humidity: 95%   Direction: 360°N
Pressure: 30.1"   Gusts: NA
Location:  30.06°N, 96.7°W
Report Text: K3T5 181510Z AUTO 36003KT 3SM BR OVC004 12/11 A3010 RMK AO2 T01210114
Loading
Personal Weather Stations






























Interactive Weather Map New forecast layout! Learn more

10-Day Weather Forecast

Advertisements
Track Severe Weather on mobile